sensor_id;sensor_type;location;lat;lon;timestamp;temperature;humidity
16929;DHT22;8581;47.334;11.190;2022-07-29T00:00:20;15.30;99.90
16929;DHT22;8581;47.334;11.190;2022-07-29T00:02:51;15.30;99.90
16929;DHT22;8581;47.334;11.190;2022-07-29T00:05:23;15.30;99.90
16929;DHT22;8581;47.334;11.190;2022-07-29T00:07:54;15.20;99.90
16929;DHT22;8581;47.334;11.190;2022-07-29T00:10:26;15.10;99.90
16929;DHT22;8581;47.334;11.190;2022-07-29T00:12:58;15.20;99.90
16929;DHT22;8581;47.334;11.190;2022-07-29T00:15:29;15.10;99.90
16929;DHT22;8581;47.334;11.190;2022-07-29T00:18:01;15.10;99.90
16929;DHT22;8581;47.334;11.190;2022-07-29T00:20:32;15.20;99.90
16929;DHT22;8581;47.334;11.190;2022-07-29T00:23:04;15.10;99.90
16929;DHT22;8581;47.334;11.190;2022-07-29T00:25:36;15.20;99.90
16929;DHT22;8581;47.334;11.190;2022-07-29T00:28:07;15.20;99.90
16929;DHT22;8581;47.334;11.190;2022-07-29T00:30:39;15.20;99.90
16929;DHT22;8581;47.334;11.190;2022-07-29T00:33:10;15.30;99.90
16929;DHT22;8581;47.334;11.190;2022-07-29T00:35:42;15.40;99.90
16929;DHT22;8581;47.334;11.190;2022-07-29T00:38:15;15.30;99.90
16929;DHT22;8581;47.334;11.190;2022-07-29T00:40:46;15.30;99.90
16929;DHT22;8581;47.334;11.190;2022-07-29T00:43:18;15.10;99.90
16929;DHT22;8581;47.334;11.190;2022-07-29T00:45:49;15.20;99.90
16929;DHT22;8581;47.334;11.190;2022-07-29T00:48:21;15.10;99.90
16929;DHT22;8581;47.334;11.190;2022-07-29T00:50:52;15.00;99.90
16929;DHT22;8581;47.334;11.190;2022-07-29T00:53:24;15.10;99.90
16929;DHT22;8581;47.334;11.190;2022-07-29T00:55:56;15.00;99.90
16929;DHT22;8581;47.334;11.190;2022-07-29T00:58:27;15.00;99.90
16929;DHT22;8581;47.334;11.190;2022-07-29T01:00:59;14.90;99.90
16929;DHT22;8581;47.334;11.190;2022-07-29T01:03:30;15.00;99.90
16929;DHT22;8581;47.334;11.190;2022-07-29T01:06:02;14.90;99.90
16929;DHT22;8581;47.334;11.190;2022-07-29T01:08:34;14.90;99.90
16929;DHT22;8581;47.334;11.190;2022-07-29T01:11:05;14.90;99.90
16929;DHT22;8581;47.334;11.190;2022-07-29T01:13:37;14.90;99.90
16929;DHT22;8581;47.334;11.190;2022-07-29T01:16:13;15.00;99.90
16929;DHT22;8581;47.334;11.190;2022-07-29T01:18:44;15.00;99.90
16929;DHT22;8581;47.334;11.190;2022-07-29T01:21:50;14.90;99.90
16929;DHT22;8581;47.334;11.190;2022-07-29T01:24:38;14.90;99.90
16929;DHT22;8581;47.334;11.190;2022-07-29T01:27:16;14.90;99.90
16929;DHT22;8581;47.334;11.190;2022-07-29T01:29:43;14.80;99.90
16929;DHT22;8581;47.334;11.190;2022-07-29T01:32:15;14.80;99.90
16929;DHT22;8581;47.334;11.190;2022-07-29T01:34:56;14.80;99.90
16929;DHT22;8581;47.334;11.190;2022-07-29T01:37:33;14.80;99.90
16929;DHT22;8581;47.334;11.190;2022-07-29T01:40:03;14.80;99.90
16929;DHT22;8581;47.334;11.190;2022-07-29T01:42:36;14.70;99.90
16929;DHT22;8581;47.334;11.190;2022-07-29T01:45:10;14.80;99.90
16929;DHT22;8581;47.334;11.190;2022-07-29T01:47:44;14.70;99.90
16929;DHT22;8581;47.334;11.190;2022-07-29T01:50:16;14.60;99.90
16929;DHT22;8581;47.334;11.190;2022-07-29T01:52:49;14.60;99.90
16929;DHT22;8581;47.334;11.190;2022-07-29T01:55:21;14.50;99.90
16929;DHT22;8581;47.334;11.190;2022-07-29T01:57:52;14.50;99.90
16929;DHT22;8581;47.334;11.190;2022-07-29T02:00:24;14.50;99.90
16929;DHT22;8581;47.334;11.190;2022-07-29T02:02:55;14.50;99.90
16929;DHT22;8581;47.334;11.190;2022-07-29T02:05:27;14.50;99.90
16929;DHT22;8581;47.334;11.190;2022-07-29T02:07:59;14.50;99.90
16929;DHT22;8581;47.334;11.190;2022-07-29T02:10:31;14.60;99.90
16929;DHT22;8581;47.334;11.190;2022-07-29T02:13:02;14.70;99.90
16929;DHT22;8581;47.334;11.190;2022-07-29T02:15:34;14.70;99.90
16929;DHT22;8581;47.334;11.190;2022-07-29T02:18:07;14.60;99.90
16929;DHT22;8581;47.334;11.190;2022-07-29T02:20:38;14.70;99.90
16929;DHT22;8581;47.334;11.190;2022-07-29T02:23:09;14.50;99.90
16929;DHT22;8581;47.334;11.190;2022-07-29T02:25:41;14.40;99.90
16929;DHT22;8581;47.334;11.190;2022-07-29T02:28:12;14.40;99.90
16929;DHT22;8581;47.334;11.190;2022-07-29T02:30:44;14.40;99.90
16929;DHT22;8581;47.334;11.190;2022-07-29T02:33:16;14.30;99.90
16929;DHT22;8581;47.334;11.190;2022-07-29T02:35:47;14.30;99.90
16929;DHT22;8581;47.334;11.190;2022-07-29T02:38:19;14.40;99.90
16929;DHT22;8581;47.334;11.190;2022-07-29T02:40:56;14.20;99.90
16929;DHT22;8581;47.334;11.190;2022-07-29T02:43:27;14.10;99.90
16929;DHT22;8581;47.334;11.190;2022-07-29T02:45:59;14.20;99.90
16929;DHT22;8581;47.334;11.190;2022-07-29T02:48:34;14.30;99.90
16929;DHT22;8581;47.334;11.190;2022-07-29T02:51:07;14.20;99.90
16929;DHT22;8581;47.334;11.190;2022-07-29T02:53:36;14.10;99.90
16929;DHT22;8581;47.334;11.190;2022-07-29T02:56:10;14.00;99.90
16929;DHT22;8581;47.334;11.190;2022-07-29T02:58:41;14.10;99.90
16929;DHT22;8581;47.334;11.190;2022-07-29T03:01:14;14.00;99.90
16929;DHT22;8581;47.334;11.190;2022-07-29T03:03:46;14.10;99.90
16929;DHT22;8581;47.334;11.190;2022-07-29T03:06:17;14.10;99.90
16929;DHT22;8581;47.334;11.190;2022-07-29T03:08:49;14.10;99.90
16929;DHT22;8581;47.334;11.190;2022-07-29T03:11:20;14.10;99.90
16929;DHT22;8581;47.334;11.190;2022-07-29T03:13:52;14.10;99.90
16929;DHT22;8581;47.334;11.190;2022-07-29T03:16:23;14.00;99.90
16929;DHT22;8581;47.334;11.190;2022-07-29T03:18:55;14.00;99.90
16929;DHT22;8581;47.334;11.190;2022-07-29T03:21:27;14.00;99.90
16929;DHT22;8581;47.334;11.190;2022-07-29T03:23:58;13.90;99.90
16929;DHT22;8581;47.334;11.190;2022-07-29T03:26:30;13.90;99.90
16929;DHT22;8581;47.334;11.190;2022-07-29T03:29:01;13.80;99.90
16929;DHT22;8581;47.334;11.190;2022-07-29T03:31:33;13.80;99.90
16929;DHT22;8581;47.334;11.190;2022-07-29T03:34:04;13.80;99.90
16929;DHT22;8581;47.334;11.190;2022-07-29T03:36:36;13.70;99.90
16929;DHT22;8581;47.334;11.190;2022-07-29T03:39:08;13.60;99.90
16929;DHT22;8581;47.334;11.190;2022-07-29T03:41:39;13.50;99.90
16929;DHT22;8581;47.334;11.190;2022-07-29T03:44:11;13.40;99.90
16929;DHT22;8581;47.334;11.190;2022-07-29T03:46:43;13.30;99.90
16929;DHT22;8581;47.334;11.190;2022-07-29T03:49:15;13.30;99.90
16929;DHT22;8581;47.334;11.190;2022-07-29T03:51:46;13.30;99.90
16929;DHT22;8581;47.334;11.190;2022-07-29T03:54:17;13.40;99.90
16929;DHT22;8581;47.334;11.190;2022-07-29T03:56:49;13.60;99.90
16929;DHT22;8581;47.334;11.190;2022-07-29T03:59:21;13.80;99.90
16929;DHT22;8581;47.334;11.190;2022-07-29T04:01:53;13.90;99.90
16929;DHT22;8581;47.334;11.190;2022-07-29T04:04:25;14.20;99.90
16929;DHT22;8581;47.334;11.190;2022-07-29T04:06:56;14.20;99.90
16929;DHT22;8581;47.334;11.190;2022-07-29T04:09:28;14.30;99.90
16929;DHT22;8581;47.334;11.190;2022-07-29T04:11:59;14.30;99.90
16929;DHT22;8581;47.334;11.190;2022-07-29T04:14:31;14.30;99.90
16929;DHT22;8581;47.334;11.190;2022-07-29T04:17:03;14.20;99.90
16929;DHT22;8581;47.334;11.190;2022-07-29T04:19:34;14.20;99.90
16929;DHT22;8581;47.334;11.190;2022-07-29T04:22:06;14.10;99.90
16929;DHT22;8581;47.334;11.190;2022-07-29T04:24:37;14.20;99.90
16929;DHT22;8581;47.334;11.190;2022-07-29T04:27:09;14.10;99.90
16929;DHT22;8581;47.334;11.190;2022-07-29T04:29:40;14.20;99.90
16929;DHT22;8581;47.334;11.190;2022-07-29T04:32:12;14.20;99.90
16929;DHT22;8581;47.334;11.190;2022-07-29T04:34:44;14.30;99.90
16929;DHT22;8581;47.334;11.190;2022-07-29T04:37:15;14.30;99.90
16929;DHT22;8581;47.334;11.190;2022-07-29T04:39:47;14.40;99.90
16929;DHT22;8581;47.334;11.190;2022-07-29T04:42:18;14.60;99.90
16929;DHT22;8581;47.334;11.190;2022-07-29T04:44:50;14.60;99.90
16929;DHT22;8581;47.334;11.190;2022-07-29T04:47:21;14.50;99.90
16929;DHT22;8581;47.334;11.190;2022-07-29T04:49:53;14.60;99.90
16929;DHT22;8581;47.334;11.190;2022-07-29T04:52:25;14.50;99.90
16929;DHT22;8581;47.334;11.190;2022-07-29T04:54:56;14.50;99.90
16929;DHT22;8581;47.334;11.190;2022-07-29T04:57:28;14.50;99.90
16929;DHT22;8581;47.334;11.190;2022-07-29T04:59:59;14.60;99.90
16929;DHT22;8581;47.334;11.190;2022-07-29T05:02:31;14.70;99.90
16929;DHT22;8581;47.334;11.190;2022-07-29T05:05:03;14.60;99.90
16929;DHT22;8581;47.334;11.190;2022-07-29T05:07:35;14.60;99.90
16929;DHT22;8581;47.334;11.190;2022-07-29T05:10:07;14.60;99.90
16929;DHT22;8581;47.334;11.190;2022-07-29T05:12:38;14.70;99.90
16929;DHT22;8581;47.334;11.190;2022-07-29T05:15:10;14.70;99.90
16929;DHT22;8581;47.334;11.190;2022-07-29T05:17:42;14.80;99.90
16929;DHT22;8581;47.334;11.190;2022-07-29T05:23:01;15.00;99.90
16929;DHT22;8581;47.334;11.190;2022-07-29T05:25:35;15.00;99.90
16929;DHT22;8581;47.334;11.190;2022-07-29T05:28:09;15.10;99.90
16929;DHT22;8581;47.334;11.190;2022-07-29T05:30:41;15.10;99.90
16929;DHT22;8581;47.334;11.190;2022-07-29T05:33:12;15.10;99.90
16929;DHT22;8581;47.334;11.190;2022-07-29T05:35:44;15.10;99.90
16929;DHT22;8581;47.334;11.190;2022-07-29T05:38:16;15.10;99.90
16929;DHT22;8581;47.334;11.190;2022-07-29T05:40:48;15.10;99.90
16929;DHT22;8581;47.334;11.190;2022-07-29T05:43:20;15.20;99.90
16929;DHT22;8581;47.334;11.190;2022-07-29T05:45:51;15.40;99.90
16929;DHT22;8581;47.334;11.190;2022-07-29T05:48:23;15.50;99.90
16929;DHT22;8581;47.334;11.190;2022-07-29T05:50:54;15.70;99.90
16929;DHT22;8581;47.334;11.190;2022-07-29T05:53:26;15.60;99.90
16929;DHT22;8581;47.334;11.190;2022-07-29T05:55:58;15.60;99.90
16929;DHT22;8581;47.334;11.190;2022-07-29T05:58:29;15.80;99.90
16929;DHT22;8581;47.334;11.190;2022-07-29T06:01:01;15.80;99.90
16929;DHT22;8581;47.334;11.190;2022-07-29T06:03:32;15.90;99.90
16929;DHT22;8581;47.334;11.190;2022-07-29T06:06:04;16.00;99.90
16929;DHT22;8581;47.334;11.190;2022-07-29T06:08:36;16.10;99.90
16929;DHT22;8581;47.334;11.190;2022-07-29T06:11:07;16.10;99.90
16929;DHT22;8581;47.334;11.190;2022-07-29T06:13:40;16.40;99.90
16929;DHT22;8581;47.334;11.190;2022-07-29T06:16:23;16.50;99.90
16929;DHT22;8581;47.334;11.190;2022-07-29T06:18:54;16.40;99.90
16929;DHT22;8581;47.334;11.190;2022-07-29T06:21:26;16.60;99.90
16929;DHT22;8581;47.334;11.190;2022-07-29T06:23:57;16.60;99.90
16929;DHT22;8581;47.334;11.190;2022-07-29T06:26:29;16.40;99.90
16929;DHT22;8581;47.334;11.190;2022-07-29T06:29:00;16.40;99.90
16929;DHT22;8581;47.334;11.190;2022-07-29T06:31:32;16.50;99.90
16929;DHT22;8581;47.334;11.190;2022-07-29T06:34:04;16.50;99.90
16929;DHT22;8581;47.334;11.190;2022-07-29T06:36:36;16.40;99.90
16929;DHT22;8581;47.334;11.190;2022-07-29T06:39:07;16.20;99.90
16929;DHT22;8581;47.334;11.190;2022-07-29T06:41:38;16.00;99.90
16929;DHT22;8581;47.334;11.190;2022-07-29T06:44:10;16.00;99.90
16929;DHT22;8581;47.334;11.190;2022-07-29T06:46:42;15.80;99.90
16929;DHT22;8581;47.334;11.190;2022-07-29T06:49:13;15.80;99.90
16929;DHT22;8581;47.334;11.190;2022-07-29T06:51:45;16.00;99.90
16929;DHT22;8581;47.334;11.190;2022-07-29T06:54:16;16.10;99.90
16929;DHT22;8581;47.334;11.190;2022-07-29T06:56:48;16.20;99.90
16929;DHT22;8581;47.334;11.190;2022-07-29T06:59:20;16.20;99.90
16929;DHT22;8581;47.334;11.190;2022-07-29T07:01:51;16.20;99.90
16929;DHT22;8581;47.334;11.190;2022-07-29T07:04:23;16.30;99.90
16929;DHT22;8581;47.334;11.190;2022-07-29T07:06:54;16.50;99.90
16929;DHT22;8581;47.334;11.190;2022-07-29T07:09:26;16.60;99.90
16929;DHT22;8581;47.334;11.190;2022-07-29T07:11:58;16.90;99.90
16929;DHT22;8581;47.334;11.190;2022-07-29T07:14:29;17.10;99.90
16929;DHT22;8581;47.334;11.190;2022-07-29T07:17:01;17.10;99.90
16929;DHT22;8581;47.334;11.190;2022-07-29T07:19:32;17.10;99.90
16929;DHT22;8581;47.334;11.190;2022-07-29T07:22:04;17.20;99.90
16929;DHT22;8581;47.334;11.190;2022-07-29T07:24:36;17.30;99.90
16929;DHT22;8581;47.334;11.190;2022-07-29T07:27:07;17.30;99.90
16929;DHT22;8581;47.334;11.190;2022-07-29T07:29:39;17.50;99.90
16929;DHT22;8581;47.334;11.190;2022-07-29T07:32:10;17.70;99.90
16929;DHT22;8581;47.334;11.190;2022-07-29T07:34:42;18.00;99.90
16929;DHT22;8581;47.334;11.190;2022-07-29T07:37:14;18.20;99.90
16929;DHT22;8581;47.334;11.190;2022-07-29T07:39:45;18.30;99.90
16929;DHT22;8581;47.334;11.190;2022-07-29T07:42:17;18.20;99.90
16929;DHT22;8581;47.334;11.190;2022-07-29T07:44:48;18.50;99.90
16929;DHT22;8581;47.334;11.190;2022-07-29T07:47:20;18.60;99.90
16929;DHT22;8581;47.334;11.190;2022-07-29T07:49:52;18.60;99.90
16929;DHT22;8581;47.334;11.190;2022-07-29T07:52:23;18.60;99.90
16929;DHT22;8581;47.334;11.190;2022-07-29T07:54:55;18.60;99.90
16929;DHT22;8581;47.334;11.190;2022-07-29T07:57:26;18.70;99.90
16929;DHT22;8581;47.334;11.190;2022-07-29T07:59:58;18.90;99.90
16929;DHT22;8581;47.334;11.190;2022-07-29T08:02:30;19.00;99.90
16929;DHT22;8581;47.334;11.190;2022-07-29T08:05:01;18.90;99.90
16929;DHT22;8581;47.334;11.190;2022-07-29T08:07:33;19.10;99.90
16929;DHT22;8581;47.334;11.190;2022-07-29T08:10:05;19.20;99.90
16929;DHT22;8581;47.334;11.190;2022-07-29T08:12:37;19.40;99.90
16929;DHT22;8581;47.334;11.190;2022-07-29T08:15:08;19.60;99.90
16929;DHT22;8581;47.334;11.190;2022-07-29T08:17:40;19.40;99.90
16929;DHT22;8581;47.334;11.190;2022-07-29T08:20:12;19.60;99.90
16929;DHT22;8581;47.334;11.190;2022-07-29T08:22:43;19.60;99.90
16929;DHT22;8581;47.334;11.190;2022-07-29T08:25:15;19.50;99.90
16929;DHT22;8581;47.334;11.190;2022-07-29T08:27:47;19.20;99.90
16929;DHT22;8581;47.334;11.190;2022-07-29T08:30:18;19.40;99.90
16929;DHT22;8581;47.334;11.190;2022-07-29T08:32:50;19.50;99.90
16929;DHT22;8581;47.334;11.190;2022-07-29T08:35:22;19.80;99.90
16929;DHT22;8581;47.334;11.190;2022-07-29T08:37:53;20.20;99.90
16929;DHT22;8581;47.334;11.190;2022-07-29T08:40:25;20.40;99.90
16929;DHT22;8581;47.334;11.190;2022-07-29T08:42:56;20.50;99.90
16929;DHT22;8581;47.334;11.190;2022-07-29T08:45:29;20.70;99.90
16929;DHT22;8581;47.334;11.190;2022-07-29T08:48:01;20.60;99.90
16929;DHT22;8581;47.334;11.190;2022-07-29T08:50:34;20.60;99.90
16929;DHT22;8581;47.334;11.190;2022-07-29T08:53:04;20.40;99.90
16929;DHT22;8581;47.334;11.190;2022-07-29T08:55:36;20.60;99.90
16929;DHT22;8581;47.334;11.190;2022-07-29T08:58:07;20.70;99.90
16929;DHT22;8581;47.334;11.190;2022-07-29T09:00:43;20.80;99.90
16929;DHT22;8581;47.334;11.190;2022-07-29T09:03:14;20.80;99.90
16929;DHT22;8581;47.334;11.190;2022-07-29T09:05:46;20.80;99.90
16929;DHT22;8581;47.334;11.190;2022-07-29T09:08:17;20.90;99.90
16929;DHT22;8581;47.334;11.190;2022-07-29T09:10:48;21.20;99.90
16929;DHT22;8581;47.334;11.190;2022-07-29T09:13:19;21.40;99.90
16929;DHT22;8581;47.334;11.190;2022-07-29T09:15:51;21.40;99.90
16929;DHT22;8581;47.334;11.190;2022-07-29T09:18:33;21.70;99.90
16929;DHT22;8581;47.334;11.190;2022-07-29T09:21:05;21.60;99.90
16929;DHT22;8581;47.334;11.190;2022-07-29T09:23:58;22.00;99.90
16929;DHT22;8581;47.334;11.190;2022-07-29T09:26:13;22.50;99.90
16929;DHT22;8581;47.334;11.190;2022-07-29T09:28:45;22.70;99.90
16929;DHT22;8581;47.334;11.190;2022-07-29T09:31:17;23.40;99.90
16929;DHT22;8581;47.334;11.190;2022-07-29T09:33:48;23.60;99.90
16929;DHT22;8581;47.334;11.190;2022-07-29T09:36:20;23.40;99.90
16929;DHT22;8581;47.334;11.190;2022-07-29T09:38:57;23.80;99.90
16929;DHT22;8581;47.334;11.190;2022-07-29T09:41:28;23.50;99.90
16929;DHT22;8581;47.334;11.190;2022-07-29T09:44:00;23.10;99.90
16929;DHT22;8581;47.334;11.190;2022-07-29T09:46:31;23.10;99.90
16929;DHT22;8581;47.334;11.190;2022-07-29T09:49:08;23.90;99.90
16929;DHT22;8581;47.334;11.190;2022-07-29T09:51:38;24.30;99.90
16929;DHT22;8581;47.334;11.190;2022-07-29T09:54:21;23.70;99.90
16929;DHT22;8581;47.334;11.190;2022-07-29T09:56:53;24.10;99.90
16929;DHT22;8581;47.334;11.190;2022-07-29T09:59:25;24.10;99.90
16929;DHT22;8581;47.334;11.190;2022-07-29T10:01:57;23.90;99.90
16929;DHT22;8581;47.334;11.190;2022-07-29T10:04:39;24.30;99.90
16929;DHT22;8581;47.334;11.190;2022-07-29T10:07:11;24.70;99.90
16929;DHT22;8581;47.334;11.190;2022-07-29T10:09:53;25.60;99.90
16929;DHT22;8581;47.334;11.190;2022-07-29T10:12:24;24.80;99.90
16929;DHT22;8581;47.334;11.190;2022-07-29T10:14:56;25.60;99.90
16929;DHT22;8581;47.334;11.190;2022-07-29T10:17:28;26.40;99.90
16929;DHT22;8581;47.334;11.190;2022-07-29T10:19:59;27.30;99.90
16929;DHT22;8581;47.334;11.190;2022-07-29T10:22:31;28.20;99.90
16929;DHT22;8581;47.334;11.190;2022-07-29T10:25:03;28.80;99.90
16929;DHT22;8581;47.334;11.190;2022-07-29T10:27:35;30.10;99.90
16929;DHT22;8581;47.334;11.190;2022-07-29T10:30:06;30.90;99.90
16929;DHT22;8581;47.334;11.190;2022-07-29T10:32:49;31.70;99.90
16929;DHT22;8581;47.334;11.190;2022-07-29T10:35:27;30.60;99.90
16929;DHT22;8581;47.334;11.190;2022-07-29T10:38:21;31.60;99.90
16929;DHT22;8581;47.334;11.190;2022-07-29T10:42:13;31.20;96.10
16929;DHT22;8581;47.334;11.190;2022-07-29T10:44:09;30.60;99.90
16929;DHT22;8581;47.334;11.190;2022-07-29T10:46:42;31.10;99.50
16929;DHT22;8581;47.334;11.190;2022-07-29T10:49:20;31.50;98.80
16929;DHT22;8581;47.334;11.190;2022-07-29T10:51:53;30.90;98.60
16929;DHT22;8581;47.334;11.190;2022-07-29T10:54:43;31.90;98.00
16929;DHT22;8581;47.334;11.190;2022-07-29T10:57:21;32.90;97.30
16929;DHT22;8581;47.334;11.190;2022-07-29T11:02:47;33.50;94.50
16929;DHT22;8581;47.334;11.190;2022-07-29T11:05:19;33.20;94.20
16929;DHT22;8581;47.334;11.190;2022-07-29T11:10:34;34.10;92.30
16929;DHT22;8581;47.334;11.190;2022-07-29T11:13:05;34.00;91.80
16929;DHT22;8581;47.334;11.190;2022-07-29T11:18:20;31.80;92.60
16929;DHT22;8581;47.334;11.190;2022-07-29T11:20:52;31.40;94.80
16929;DHT22;8581;47.334;11.190;2022-07-29T11:23:27;32.50;93.70
16929;DHT22;8581;47.334;11.190;2022-07-29T11:26:17;32.30;92.00
16929;DHT22;8581;47.334;11.190;2022-07-29T11:28:59;31.30;94.90
16929;DHT22;8581;47.334;11.190;2022-07-29T11:31:41;31.70;94.20
16929;DHT22;8581;47.334;11.190;2022-07-29T11:34:18;31.60;94.20
16929;DHT22;8581;47.334;11.190;2022-07-29T11:39:33;32.70;91.40
16929;DHT22;8581;47.334;11.190;2022-07-29T11:45:07;33.70;88.70
16929;DHT22;8581;47.334;11.190;2022-07-29T11:47:40;34.60;85.70
16929;DHT22;8581;47.334;11.190;2022-07-29T11:50:12;35.00;91.30
16929;DHT22;8581;47.334;11.190;2022-07-29T11:52:44;35.40;85.40
16929;DHT22;8581;47.334;11.190;2022-07-29T11:55:16;36.40;82.50
16929;DHT22;8581;47.334;11.190;2022-07-29T11:57:48;36.00;83.80
16929;DHT22;8581;47.334;11.190;2022-07-29T12:00:23;36.00;80.70
16929;DHT22;8581;47.334;11.190;2022-07-29T12:02:54;37.20;80.20
16929;DHT22;8581;47.334;11.190;2022-07-29T12:05:32;37.50;75.80
16929;DHT22;8581;47.334;11.190;2022-07-29T12:08:05;36.50;80.70
16929;DHT22;8581;47.334;11.190;2022-07-29T12:10:36;37.00;76.30
16929;DHT22;8581;47.334;11.190;2022-07-29T12:13:08;37.20;76.70
16929;DHT22;8581;47.334;11.190;2022-07-29T12:15:39;38.90;73.70
16929;DHT22;8581;47.334;11.190;2022-07-29T12:18:18;38.20;71.50
16929;DHT22;8581;47.334;11.190;2022-07-29T12:20:58;36.70;72.70
16929;DHT22;8581;47.334;11.190;2022-07-29T12:23:30;37.20;75.30
16929;DHT22;8581;47.334;11.190;2022-07-29T12:26:05;37.60;72.00
16929;DHT22;8581;47.334;11.190;2022-07-29T12:28:37;37.20;70.30
16929;DHT22;8581;47.334;11.190;2022-07-29T12:31:16;37.80;73.00
16929;DHT22;8581;47.334;11.190;2022-07-29T12:33:51;38.30;70.10
16929;DHT22;8581;47.334;11.190;2022-07-29T12:36:23;38.40;68.40
16929;DHT22;8581;47.334;11.190;2022-07-29T12:38:57;38.40;68.10
16929;DHT22;8581;47.334;11.190;2022-07-29T12:41:29;38.40;67.10
16929;DHT22;8581;47.334;11.190;2022-07-29T12:44:01;38.60;68.90
16929;DHT22;8581;47.334;11.190;2022-07-29T12:46:33;36.50;68.80
16929;DHT22;8581;47.334;11.190;2022-07-29T12:49:04;36.60;68.70
16929;DHT22;8581;47.334;11.190;2022-07-29T12:51:38;37.60;69.80
16929;DHT22;8581;47.334;11.190;2022-07-29T12:54:10;38.00;70.50
16929;DHT22;8581;47.334;11.190;2022-07-29T12:56:42;38.30;65.80
16929;DHT22;8581;47.334;11.190;2022-07-29T12:59:16;37.50;67.30
16929;DHT22;8581;47.334;11.190;2022-07-29T13:01:47;35.90;69.30
16929;DHT22;8581;47.334;11.190;2022-07-29T13:04:25;33.90;70.90
16929;DHT22;8581;47.334;11.190;2022-07-29T13:07:02;32.40;73.60
16929;DHT22;8581;47.334;11.190;2022-07-29T13:09:37;31.30;78.40
16929;DHT22;8581;47.334;11.190;2022-07-29T13:12:09;30.00;82.30
16929;DHT22;8581;47.334;11.190;2022-07-29T13:14:44;29.10;82.70
16929;DHT22;8581;47.334;11.190;2022-07-29T13:17:19;28.50;84.90
16929;DHT22;8581;47.334;11.190;2022-07-29T13:19:50;27.80;86.90
16929;DHT22;8581;47.334;11.190;2022-07-29T13:22:23;26.80;90.20
16929;DHT22;8581;47.334;11.190;2022-07-29T13:24:54;26.30;91.20
16929;DHT22;8581;47.334;11.190;2022-07-29T13:27:26;25.70;92.60
16929;DHT22;8581;47.334;11.190;2022-07-29T13:29:57;25.60;92.90
16929;DHT22;8581;47.334;11.190;2022-07-29T13:32:29;25.20;95.50
16929;DHT22;8581;47.334;11.190;2022-07-29T13:35:01;24.90;98.50
16929;DHT22;8581;47.334;11.190;2022-07-29T13:37:32;24.60;99.90
16929;DHT22;8581;47.334;11.190;2022-07-29T13:40:04;23.90;99.90
16929;DHT22;8581;47.334;11.190;2022-07-29T13:42:36;22.50;99.90
16929;DHT22;8581;47.334;11.190;2022-07-29T13:45:08;21.20;99.90
16929;DHT22;8581;47.334;11.190;2022-07-29T13:47:39;20.70;99.90
16929;DHT22;8581;47.334;11.190;2022-07-29T13:50:11;20.30;99.90
16929;DHT22;8581;47.334;11.190;2022-07-29T13:52:43;19.40;99.90
16929;DHT22;8581;47.334;11.190;2022-07-29T13:55:14;19.50;99.90
16929;DHT22;8581;47.334;11.190;2022-07-29T13:57:46;19.80;99.90
16929;DHT22;8581;47.334;11.190;2022-07-29T14:00:17;19.80;99.90
16929;DHT22;8581;47.334;11.190;2022-07-29T14:02:49;19.50;99.90
16929;DHT22;8581;47.334;11.190;2022-07-29T14:05:21;19.40;99.90
16929;DHT22;8581;47.334;11.190;2022-07-29T14:07:52;19.20;99.90
16929;DHT22;8581;47.334;11.190;2022-07-29T14:10:24;19.20;99.90
16929;DHT22;8581;47.334;11.190;2022-07-29T14:12:55;19.10;99.90
16929;DHT22;8581;47.334;11.190;2022-07-29T14:15:27;19.10;99.90
16929;DHT22;8581;47.334;11.190;2022-07-29T14:17:59;19.20;99.90
16929;DHT22;8581;47.334;11.190;2022-07-29T14:20:30;19.10;99.90
16929;DHT22;8581;47.334;11.190;2022-07-29T14:23:02;19.30;99.90
16929;DHT22;8581;47.334;11.190;2022-07-29T14:25:33;19.10;99.90
16929;DHT22;8581;47.334;11.190;2022-07-29T14:28:05;18.90;99.90
16929;DHT22;8581;47.334;11.190;2022-07-29T14:30:37;18.60;99.90
16929;DHT22;8581;47.334;11.190;2022-07-29T14:33:08;18.30;99.90
16929;DHT22;8581;47.334;11.190;2022-07-29T14:35:40;17.90;99.90
16929;DHT22;8581;47.334;11.190;2022-07-29T14:38:12;17.70;99.90
16929;DHT22;8581;47.334;11.190;2022-07-29T14:40:43;17.40;99.90
16929;DHT22;8581;47.334;11.190;2022-07-29T14:43:15;17.20;99.90
16929;DHT22;8581;47.334;11.190;2022-07-29T14:45:46;17.30;99.90
16929;DHT22;8581;47.334;11.190;2022-07-29T14:48:18;17.30;99.90
16929;DHT22;8581;47.334;11.190;2022-07-29T14:50:49;17.00;99.90
16929;DHT22;8581;47.334;11.190;2022-07-29T14:53:21;17.00;99.90
16929;DHT22;8581;47.334;11.190;2022-07-29T14:55:53;17.00;99.90
16929;DHT22;8581;47.334;11.190;2022-07-29T14:58:24;17.30;99.90
16929;DHT22;8581;47.334;11.190;2022-07-29T15:00:56;17.50;99.90
16929;DHT22;8581;47.334;11.190;2022-07-29T15:03:27;17.90;99.90
16929;DHT22;8581;47.334;11.190;2022-07-29T15:05:59;18.20;99.90
16929;DHT22;8581;47.334;11.190;2022-07-29T15:08:31;18.30;99.90
16929;DHT22;8581;47.334;11.190;2022-07-29T15:11:02;18.40;99.90
16929;DHT22;8581;47.334;11.190;2022-07-29T15:13:34;18.30;99.90
16929;DHT22;8581;47.334;11.190;2022-07-29T15:16:05;18.20;99.90
16929;DHT22;8581;47.334;11.190;2022-07-29T15:18:37;18.10;99.90
16929;DHT22;8581;47.334;11.190;2022-07-29T15:21:09;17.90;99.90
16929;DHT22;8581;47.334;11.190;2022-07-29T15:23:40;17.80;99.90
16929;DHT22;8581;47.334;11.190;2022-07-29T15:26:12;17.70;99.90
16929;DHT22;8581;47.334;11.190;2022-07-29T15:28:43;17.60;99.90
16929;DHT22;8581;47.334;11.190;2022-07-29T15:31:16;17.40;99.90
16929;DHT22;8581;47.334;11.190;2022-07-29T15:33:50;17.40;99.90
16929;DHT22;8581;47.334;11.190;2022-07-29T15:36:21;17.60;99.90
16929;DHT22;8581;47.334;11.190;2022-07-29T15:38:53;17.70;99.90
16929;DHT22;8581;47.334;11.190;2022-07-29T15:41:24;17.50;99.90
16929;DHT22;8581;47.334;11.190;2022-07-29T15:43:56;17.50;99.90
16929;DHT22;8581;47.334;11.190;2022-07-29T15:46:28;17.50;99.90
16929;DHT22;8581;47.334;11.190;2022-07-29T15:49:05;17.60;99.90
16929;DHT22;8581;47.334;11.190;2022-07-29T15:51:36;17.60;99.90
16929;DHT22;8581;47.334;11.190;2022-07-29T15:54:08;17.50;99.90
16929;DHT22;8581;47.334;11.190;2022-07-29T15:56:40;17.60;99.90
16929;DHT22;8581;47.334;11.190;2022-07-29T15:59:11;17.60;99.90
16929;DHT22;8581;47.334;11.190;2022-07-29T16:01:43;17.40;99.90
16929;DHT22;8581;47.334;11.190;2022-07-29T16:04:14;17.40;99.90
16929;DHT22;8581;47.334;11.190;2022-07-29T16:06:46;17.30;99.90
16929;DHT22;8581;47.334;11.190;2022-07-29T16:09:18;17.20;99.90
16929;DHT22;8581;47.334;11.190;2022-07-29T16:11:49;17.30;99.90
16929;DHT22;8581;47.334;11.190;2022-07-29T16:14:21;17.10;99.90
16929;DHT22;8581;47.334;11.190;2022-07-29T16:16:52;17.00;99.90
16929;DHT22;8581;47.334;11.190;2022-07-29T16:19:24;16.80;99.90